createdAt,value
2023-01-17T00:01:59.260Z,3.90
2023-01-17T00:04:44.852Z,4.00
2023-01-17T00:07:31.338Z,4.00
2023-01-17T00:09:59.173Z,4.00
2023-01-17T00:12:26.833Z,4.00
2023-01-17T00:14:54.779Z,4.00
2023-01-17T00:17:25.041Z,4.00
2023-01-17T00:20:10.646Z,4.00
2023-01-17T00:22:56.227Z,4.00
2023-01-17T00:25:43.813Z,3.90
2023-01-17T00:28:10.488Z,4.00
2023-01-17T00:30:37.113Z,4.00
2023-01-17T00:33:03.788Z,4.00
2023-01-17T00:35:31.011Z,4.00
2023-01-17T00:38:05.071Z,4.00
2023-01-17T00:40:32.477Z,4.00
2023-01-17T00:43:17.770Z,4.00
2023-01-17T00:46:03.607Z,4.00
2023-01-17T00:48:49.007Z,4.10
2023-01-17T00:51:34.465Z,4.10
2023-01-17T00:54:19.584Z,4.10
2023-01-17T00:57:05.027Z,4.10
2023-01-17T00:59:50.230Z,4.10
2023-01-17T01:02:35.610Z,4.10
2023-01-17T01:05:21.203Z,4.10
2023-01-17T01:08:06.641Z,4.10
2023-01-17T01:10:52.138Z,4.00
2023-01-17T01:13:37.771Z,4.10
2023-01-17T01:16:23.436Z,4.10
2023-01-17T01:19:09.006Z,4.00
2023-01-17T01:21:54.275Z,4.00
2023-01-17T01:24:39.572Z,4.00
2023-01-17T01:27:24.983Z,3.90
2023-01-17T01:30:10.377Z,3.90
2023-01-17T01:32:55.740Z,3.80
2023-01-17T01:35:22.882Z,3.80
2023-01-17T01:37:49.562Z,3.80
2023-01-17T01:40:16.785Z,3.80
2023-01-17T01:42:53.896Z,3.80
2023-01-17T01:45:22.128Z,3.80
2023-01-17T01:47:50.050Z,3.80
2023-01-17T01:50:17.442Z,3.80
2023-01-17T01:52:46.029Z,3.80
2023-01-17T01:55:17.938Z,3.70
2023-01-17T01:57:47.307Z,3.70
2023-01-17T02:00:16.772Z,3.70
2023-01-17T02:02:44.140Z,3.60
2023-01-17T02:05:11.796Z,3.60
2023-01-17T02:07:41.537Z,3.50
2023-01-17T02:10:09.678Z,3.50
2023-01-17T02:12:36.322Z,3.40
2023-01-17T02:15:05.645Z,3.40
2023-01-17T02:17:50.667Z,3.30
2023-01-17T02:20:32.439Z,3.30
2023-01-17T02:23:17.845Z,3.30
2023-01-17T02:25:59.826Z,3.20
2023-01-17T02:28:37.350Z,3.20
2023-01-17T02:31:27.552Z,3.20
2023-01-17T02:33:54.252Z,3.20
2023-01-17T02:36:29.156Z,3.20
2023-01-17T02:39:06.851Z,3.30
2023-01-17T02:41:36.156Z,3.30
2023-01-17T02:44:03.616Z,3.30
2023-01-17T02:46:30.720Z,3.30
2023-01-17T02:48:57.790Z,3.20
2023-01-17T02:51:42.339Z,3.20
2023-01-17T02:54:27.612Z,3.30
2023-01-17T02:57:12.805Z,3.30
2023-01-17T02:59:50.780Z,3.30
2023-01-17T03:02:23.622Z,3.40
2023-01-17T03:05:09.161Z,3.40
2023-01-17T03:07:36.059Z,3.40
2023-01-17T03:10:04.914Z,3.40
2023-01-17T03:12:33.156Z,3.40
2023-01-17T03:14:59.825Z,3.40
2023-01-17T03:17:29.279Z,3.40
2023-01-17T03:19:55.945Z,3.40
2023-01-17T03:22:22.586Z,3.40
2023-01-17T03:24:49.588Z,3.40
2023-01-17T03:27:34.917Z,3.40
2023-01-17T03:30:01.908Z,3.40
2023-01-17T03:32:28.572Z,3.40
2023-01-17T03:34:55.647Z,3.40
2023-01-17T03:37:22.357Z,3.40
2023-01-17T03:39:48.998Z,3.30
2023-01-17T03:42:15.797Z,3.30
2023-01-17T03:44:42.443Z,3.30
2023-01-17T03:47:12.065Z,3.30
2023-01-17T03:49:39.391Z,3.20
2023-01-17T03:52:06.544Z,3.20
2023-01-17T03:54:33.512Z,3.20
2023-01-17T03:57:00.128Z,3.20
2023-01-17T03:59:26.798Z,3.20
2023-01-17T04:01:53.685Z,3.20
2023-01-17T04:04:20.381Z,3.20
2023-01-17T04:06:48.072Z,3.20
2023-01-17T04:09:14.824Z,3.20
2023-01-17T04:11:41.471Z,3.20
2023-01-17T04:14:08.155Z,3.20
2023-01-17T04:16:35.890Z,3.20
2023-01-17T04:19:02.600Z,3.20
2023-01-17T04:21:29.241Z,3.20
2023-01-17T04:23:55.870Z,3.20
2023-01-17T04:26:22.576Z,3.30
2023-01-17T04:28:49.482Z,3.30
2023-01-17T04:31:17.068Z,3.30
2023-01-17T04:33:43.920Z,3.30
2023-01-17T04:36:10.670Z,3.40
2023-01-17T04:38:37.346Z,3.40
2023-01-17T04:41:04.298Z,3.40
2023-01-17T04:43:30.942Z,3.40
2023-01-17T04:45:58.364Z,3.40
2023-01-17T04:48:26.131Z,3.40
2023-01-17T04:50:58.894Z,3.40
2023-01-17T04:53:25.546Z,3.30
2023-01-17T04:55:52.204Z,3.40
2023-01-17T04:58:18.928Z,3.30
2023-01-17T05:00:50.688Z,3.30
2023-01-17T05:03:18.220Z,3.30
2023-01-17T05:05:44.885Z,3.30
2023-01-17T05:08:11.584Z,3.20
2023-01-17T05:10:38.250Z,3.30
2023-01-17T05:13:04.908Z,3.30
2023-01-17T05:15:31.723Z,3.20
2023-01-17T05:17:58.410Z,3.20
2023-01-17T05:20:26.193Z,3.20
2023-01-17T05:22:55.461Z,3.20
2023-01-17T05:25:23.380Z,3.20
2023-01-17T05:27:50.058Z,3.30
2023-01-17T05:30:17.161Z,3.20
2023-01-17T05:32:54.355Z,3.30
2023-01-17T05:35:22.304Z,3.20
2023-01-17T05:37:49.613Z,3.20
2023-01-17T05:40:17.293Z,3.10
2023-01-17T05:42:50.900Z,3.10
2023-01-17T05:45:18.070Z,3.10
2023-01-17T05:47:44.967Z,3.10
2023-01-17T05:50:12.536Z,3.10
2023-01-17T05:52:39.485Z,3.10
2023-01-17T05:55:07.433Z,3.10
2023-01-17T05:57:34.437Z,3.20
2023-01-17T06:00:01.099Z,3.20
2023-01-17T06:02:28.247Z,3.20
2023-01-17T06:04:55.153Z,3.20
2023-01-17T06:07:21.838Z,3.20
2023-01-17T06:09:48.485Z,3.20
2023-01-17T06:12:15.134Z,3.20
2023-01-17T06:14:41.791Z,3.20
2023-01-17T06:17:08.484Z,3.10
2023-01-17T06:19:35.133Z,3.10
2023-01-17T06:22:03.425Z,3.10
2023-01-17T06:24:30.509Z,3.10
2023-01-17T06:26:57.381Z,3.00
2023-01-17T06:29:24.163Z,3.10
2023-01-17T06:31:50.815Z,3.10
2023-01-17T06:34:17.639Z,3.00
2023-01-17T06:36:44.319Z,3.00
2023-01-17T06:39:11.493Z,3.00
2023-01-17T06:41:39.552Z,2.90
2023-01-17T06:44:07.580Z,2.90
2023-01-17T06:46:34.227Z,2.90
2023-01-17T06:49:01.020Z,2.80
2023-01-17T06:51:27.932Z,2.70
2023-01-17T06:53:54.601Z,2.70
2023-01-17T06:56:21.269Z,2.70
2023-01-17T06:58:51.429Z,2.60
2023-01-17T07:01:18.322Z,2.60
2023-01-17T07:03:45.110Z,2.50
2023-01-17T07:06:11.804Z,2.50
2023-01-17T07:08:38.559Z,2.40
2023-01-17T07:11:06.153Z,2.40
2023-01-17T07:13:36.954Z,2.40
2023-01-17T07:16:04.144Z,2.30
2023-01-17T07:18:31.311Z,2.30
2023-01-17T07:20:58.045Z,2.30
2023-01-17T07:23:25.315Z,2.30
2023-01-17T07:25:55.044Z,2.30
2023-01-17T07:28:22.069Z,2.30
2023-01-17T07:30:48.770Z,2.30
2023-01-17T07:33:15.696Z,2.30
2023-01-17T07:35:42.459Z,2.30
2023-01-17T07:38:13.598Z,2.30
2023-01-17T07:40:42.351Z,2.30
2023-01-17T07:43:14.143Z,2.30
2023-01-17T07:45:45.641Z,2.40
2023-01-17T07:48:12.748Z,2.50
2023-01-17T07:50:39.665Z,2.60
2023-01-17T07:53:06.409Z,2.60
2023-01-17T07:55:33.271Z,2.70
2023-01-17T07:58:01.741Z,2.80
2023-01-17T08:00:29.622Z,2.80
2023-01-17T08:02:57.078Z,2.80
2023-01-17T08:05:23.834Z,2.80
2023-01-17T08:07:50.776Z,2.80
2023-01-17T08:10:18.093Z,2.70
2023-01-17T08:12:46.010Z,2.70
2023-01-17T08:15:13.033Z,2.60
2023-01-17T08:17:39.735Z,2.60
2023-01-17T08:20:06.433Z,2.60
2023-01-17T08:22:33.110Z,2.60
2023-01-17T08:24:59.808Z,2.60
2023-01-17T08:27:29.402Z,2.70
2023-01-17T08:29:56.522Z,2.80
2023-01-17T08:32:23.422Z,2.80
2023-01-17T08:34:50.384Z,2.90
2023-01-17T08:37:17.252Z,2.90
2023-01-17T08:39:43.924Z,2.90
2023-01-17T08:42:10.706Z,3.00
2023-01-17T08:44:38.613Z,3.00
2023-01-17T08:47:05.557Z,3.00
2023-01-17T08:49:32.232Z,3.00
2023-01-17T08:51:58.907Z,3.00
2023-01-17T08:54:25.597Z,3.00
2023-01-17T08:56:53.086Z,3.00
2023-01-17T08:59:19.820Z,2.90
2023-01-17T09:01:46.653Z,2.90
2023-01-17T09:04:13.823Z,3.00
2023-01-17T09:06:42.175Z,3.00
2023-01-17T09:09:10.986Z,3.00
2023-01-17T09:11:38.031Z,3.10
2023-01-17T09:14:04.751Z,3.00
2023-01-17T09:16:32.226Z,3.00
2023-01-17T09:18:59.012Z,3.00
2023-01-17T09:21:26.403Z,3.10
2023-01-17T09:23:53.297Z,3.30
2023-01-17T09:26:21.380Z,3.60
2023-01-17T09:28:48.230Z,4.20
2023-01-17T09:31:17.300Z,4.50
2023-01-17T09:33:44.194Z,4.30
2023-01-17T09:36:11.336Z,4.20
2023-01-17T09:38:38.744Z,4.10
2023-01-17T09:41:27.864Z,4.00
2023-01-17T09:43:56.702Z,3.90
2023-01-17T09:46:25.685Z,3.90
2023-01-17T09:49:13.026Z,3.90
2023-01-17T09:51:39.923Z,3.80
2023-01-17T09:54:10.653Z,3.70
2023-01-17T09:56:40.507Z,3.60
2023-01-17T09:59:18.793Z,3.50
2023-01-17T10:02:01.823Z,3.50
2023-01-17T10:04:51.936Z,3.50
2023-01-17T10:07:54.183Z,3.40
2023-01-17T10:10:21.009Z,3.40
2023-01-17T10:12:56.302Z,3.40
2023-01-17T10:15:41.807Z,3.50
2023-01-17T10:18:30.074Z,3.60
2023-01-17T10:21:05.735Z,3.70
2023-01-17T10:24:05.513Z,3.80
2023-01-17T10:26:32.568Z,4.00
2023-01-17T10:29:12.972Z,4.10
2023-01-17T10:31:42.286Z,4.10
2023-01-17T10:34:15.511Z,4.20
2023-01-17T10:36:44.653Z,4.30
2023-01-17T10:39:24.952Z,4.40
2023-01-17T10:42:11.566Z,4.70
2023-01-17T10:44:48.056Z,4.70
2023-01-17T10:47:18.745Z,4.60
2023-01-17T10:49:46.962Z,4.50
2023-01-17T10:52:31.100Z,4.40
2023-01-17T10:55:17.025Z,4.40
2023-01-17T10:57:44.599Z,4.30
2023-01-17T11:00:18.163Z,4.30
2023-01-17T11:02:47.700Z,4.20
2023-01-17T11:05:20.125Z,4.20
2023-01-17T11:08:06.408Z,4.10
2023-01-17T11:10:41.644Z,4.10
2023-01-17T11:13:22.481Z,4.00
2023-01-17T11:15:57.645Z,3.90
2023-01-17T11:18:27.374Z,3.90
2023-01-17T11:21:06.564Z,3.90
2023-01-17T11:23:33.432Z,4.00
2023-01-17T11:26:02.692Z,4.10
2023-01-17T11:28:30.803Z,4.10
2023-01-17T11:31:08.379Z,4.20
2023-01-17T11:33:45.920Z,4.20
2023-01-17T11:36:31.103Z,4.30
2023-01-17T11:39:16.729Z,4.50
2023-01-17T11:41:44.028Z,4.60
2023-01-17T11:44:30.434Z,4.70
2023-01-17T11:47:09.847Z,4.80
2023-01-17T11:49:36.686Z,4.80
2023-01-17T11:52:10.375Z,4.80
2023-01-17T11:54:42.584Z,4.90
2023-01-17T11:57:20.092Z,4.80
2023-01-17T11:59:47.839Z,4.70
2023-01-17T12:02:24.129Z,4.60
2023-01-17T12:05:00.706Z,4.50
2023-01-17T12:07:27.862Z,4.40
2023-01-17T12:10:09.450Z,4.40
2023-01-17T12:13:01.070Z,4.40
2023-01-17T12:15:43.336Z,4.40
2023-01-17T12:18:10.772Z,4.50
2023-01-17T12:20:41.481Z,4.50
2023-01-17T12:23:34.699Z,4.50
2023-01-17T12:26:07.966Z,4.40
2023-01-17T12:28:40.877Z,4.40
2023-01-17T12:31:27.821Z,4.40
2023-01-17T12:34:00.243Z,4.50
2023-01-17T12:36:49.917Z,4.60
2023-01-17T12:39:17.537Z,4.50
2023-01-17T12:42:02.669Z,4.50
2023-01-17T12:44:44.325Z,4.50
2023-01-17T12:47:12.692Z,4.40
2023-01-17T12:49:39.566Z,4.20
2023-01-17T12:52:29.338Z,4.10
2023-01-17T12:54:58.994Z,4.00
2023-01-17T12:57:28.109Z,3.80
2023-01-17T12:59:59.645Z,3.70
2023-01-17T13:02:34.572Z,3.60
2023-01-17T13:05:27.453Z,3.60
2023-01-17T13:08:18.046Z,3.50
2023-01-17T13:10:48.600Z,3.50
2023-01-17T13:13:22.206Z,3.50
2023-01-17T13:15:49.739Z,3.50
2023-01-17T13:18:22.703Z,3.50
2023-01-17T13:20:56.302Z,3.60
2023-01-17T13:23:28.287Z,3.60
2023-01-17T13:25:57.021Z,3.70
2023-01-17T13:28:27.773Z,3.70
2023-01-17T13:31:20.515Z,3.70
2023-01-17T13:33:47.764Z,3.70
2023-01-17T13:36:17.677Z,3.80
2023-01-17T13:38:55.001Z,3.80
2023-01-17T13:41:34.114Z,3.90
2023-01-17T13:44:20.454Z,3.90
2023-01-17T13:47:08.301Z,4.00
2023-01-17T13:49:56.444Z,3.90
2023-01-17T13:52:25.908Z,4.00
2023-01-17T13:54:56.782Z,4.00
2023-01-17T13:57:23.603Z,4.00
2023-01-17T13:59:55.225Z,4.00
2023-01-17T14:02:38.771Z,4.00
2023-01-17T14:05:10.210Z,4.00
2023-01-17T14:07:43.506Z,4.00
2023-01-17T14:10:28.815Z,4.00
2023-01-17T14:12:55.944Z,3.90
2023-01-17T14:15:25.582Z,3.90
2023-01-17T14:18:18.633Z,3.90
2023-01-17T14:21:07.224Z,4.00
2023-01-17T14:23:54.143Z,4.00
2023-01-17T14:26:29.271Z,4.00
2023-01-17T14:28:56.710Z,4.00
2023-01-17T14:31:24.035Z,4.00
2023-01-17T14:33:50.884Z,4.00
2023-01-17T14:36:25.579Z,3.90
2023-01-17T14:38:52.275Z,3.90
2023-01-17T14:41:27.735Z,3.90
2023-01-17T14:43:54.740Z,3.80
2023-01-17T14:46:24.098Z,3.80
2023-01-17T14:48:52.074Z,3.80
2023-01-17T14:51:22.813Z,3.70
2023-01-17T14:53:54.435Z,3.70
2023-01-17T14:56:21.130Z,3.60
2023-01-17T14:58:47.967Z,3.50
2023-01-17T15:01:15.710Z,3.50
2023-01-17T15:03:44.147Z,3.40
2023-01-17T15:06:12.592Z,3.40
2023-01-17T15:08:39.520Z,3.40
2023-01-17T15:11:07.865Z,3.30
2023-01-17T15:13:44.728Z,3.30
2023-01-17T15:16:17.861Z,3.20
2023-01-17T15:18:44.608Z,3.20
2023-01-17T15:21:13.561Z,3.10
2023-01-17T15:23:43.252Z,3.10
2023-01-17T15:26:12.545Z,3.00
2023-01-17T15:28:39.582Z,3.00
2023-01-17T15:31:08.841Z,3.00
2023-01-17T15:33:37.133Z,2.90
2023-01-17T15:36:08.735Z,2.90
2023-01-17T15:38:39.305Z,2.80
2023-01-17T15:41:16.822Z,2.80
2023-01-17T15:43:44.742Z,2.80
2023-01-17T15:46:26.075Z,2.70
2023-01-17T15:48:52.894Z,2.60
2023-01-17T15:51:33.517Z,2.60
2023-01-17T15:54:00.277Z,2.50
2023-01-17T15:56:31.915Z,2.40
2023-01-17T15:59:18.143Z,2.20
2023-01-17T16:01:52.324Z,2.10
2023-01-17T16:04:26.286Z,2.00
2023-01-17T16:06:53.002Z,1.90
2023-01-17T16:09:22.950Z,1.80
2023-01-17T16:11:49.658Z,1.70
2023-01-17T16:14:17.692Z,1.70
2023-01-17T16:16:53.693Z,1.60
2023-01-17T16:19:21.438Z,1.50
2023-01-17T16:21:48.444Z,1.40
2023-01-17T16:24:15.274Z,1.30
2023-01-17T16:26:42.118Z,1.20
2023-01-17T16:29:10.237Z,1.20
2023-01-17T16:31:37.142Z,1.10
2023-01-17T16:34:09.814Z,1.00
2023-01-17T16:36:36.851Z,0.90
2023-01-17T16:39:04.242Z,0.90
2023-01-17T16:41:31.005Z,0.80
2023-01-17T16:43:58.935Z,0.80
2023-01-17T16:46:26.038Z,0.80
2023-01-17T16:48:52.728Z,0.70
2023-01-17T16:51:19.609Z,0.70
2023-01-17T16:53:46.306Z,0.80
2023-01-17T16:56:15.537Z,0.70
2023-01-17T16:58:42.445Z,0.70
2023-01-17T17:01:15.474Z,0.70
2023-01-17T17:03:42.753Z,0.70
2023-01-17T17:06:09.783Z,0.60
2023-01-17T17:08:36.854Z,0.60
2023-01-17T17:11:17.375Z,0.60
2023-01-17T17:13:45.367Z,0.60
2023-01-17T17:16:14.870Z,0.60
2023-01-17T17:18:42.166Z,0.60
2023-01-17T17:21:09.057Z,0.50
2023-01-17T17:23:36.155Z,0.50
2023-01-17T17:26:02.876Z,0.50
2023-01-17T17:28:29.564Z,0.50
2023-01-17T17:31:03.445Z,0.40
2023-01-17T17:33:30.148Z,0.40
2023-01-17T17:36:01.262Z,0.30
2023-01-17T17:38:28.084Z,0.20
2023-01-17T17:40:54.919Z,0.10
2023-01-17T17:43:21.565Z,0.10
2023-01-17T17:45:48.830Z,0.00
2023-01-17T17:48:15.516Z,0.00
2023-01-17T17:50:42.165Z,-0.10
2023-01-17T17:53:08.890Z,-0.10
2023-01-17T17:55:36.361Z,-0.10
2023-01-17T17:58:02.981Z,-0.20
2023-01-17T18:00:29.650Z,-0.20
2023-01-17T18:02:56.322Z,-0.20
2023-01-17T18:05:23.212Z,-0.20
2023-01-17T18:07:51.121Z,-0.20
2023-01-17T18:10:18.348Z,-0.20
2023-01-17T18:12:45.064Z,-0.30
2023-01-17T18:15:11.670Z,-0.30
2023-01-17T18:17:38.290Z,-0.30
2023-01-17T18:20:07.578Z,-0.30
2023-01-17T18:22:34.661Z,-0.30
2023-01-17T18:25:01.317Z,-0.30
2023-01-17T18:27:27.977Z,-0.30
2023-01-17T18:29:54.692Z,-0.30
2023-01-17T18:32:22.313Z,-0.30
2023-01-17T18:34:49.228Z,-0.30
2023-01-17T18:37:15.898Z,-0.30
2023-01-17T18:39:43.624Z,-0.30
2023-01-17T18:42:11.875Z,-0.30
2023-01-17T18:44:38.583Z,-0.40
2023-01-17T18:47:05.522Z,-0.40
2023-01-17T18:49:33.661Z,-0.40
2023-01-17T18:52:00.608Z,-0.40
2023-01-17T18:54:28.211Z,-0.40
2023-01-17T18:56:55.586Z,-0.50
2023-01-17T18:59:23.564Z,-0.50
2023-01-17T19:01:51.277Z,-0.40
2023-01-17T19:04:18.081Z,-0.40
2023-01-17T19:06:46.209Z,-0.50
2023-01-17T19:09:13.750Z,-0.50
2023-01-17T19:11:40.920Z,-0.50
2023-01-17T19:14:07.591Z,-0.50
2023-01-17T19:16:36.426Z,-0.60
2023-01-17T19:19:07.744Z,-0.60
2023-01-17T19:21:34.774Z,-0.60
2023-01-17T19:24:01.474Z,-0.70
2023-01-17T19:26:28.473Z,-0.70
2023-01-17T19:28:56.365Z,-0.70
2023-01-17T19:31:24.111Z,-0.70
2023-01-17T19:33:52.341Z,-0.80
2023-01-17T19:36:20.534Z,-0.80
2023-01-17T19:39:03.106Z,-0.80
2023-01-17T19:41:31.132Z,-0.70
2023-01-17T19:43:59.182Z,-0.80
2023-01-17T19:46:27.430Z,-0.80
2023-01-17T19:48:55.282Z,-0.80
2023-01-17T19:51:22.420Z,-0.80
2023-01-17T19:53:49.080Z,-0.80
2023-01-17T19:56:17.779Z,-0.80
2023-01-17T19:58:45.297Z,-0.90
2023-01-17T20:01:19.925Z,-0.90
2023-01-17T20:03:47.138Z,-0.80
2023-01-17T20:06:15.425Z,-0.80
2023-01-17T20:08:42.150Z,-0.70
2023-01-17T20:11:10.786Z,-0.70
2023-01-17T20:13:37.454Z,-0.60
2023-01-17T20:16:04.980Z,-0.60
2023-01-17T20:18:32.023Z,-0.50
2023-01-17T20:21:06.041Z,-0.50
2023-01-17T20:23:35.282Z,-0.50
2023-01-17T20:26:04.523Z,-0.40
2023-01-17T20:28:33.270Z,-0.30
2023-01-17T20:31:12.567Z,-0.30
2023-01-17T20:33:39.821Z,-0.30
2023-01-17T20:36:10.993Z,-0.20
2023-01-17T20:38:44.878Z,-0.20
2023-01-17T20:41:15.670Z,-0.20
2023-01-17T20:43:43.576Z,-0.10
2023-01-17T20:46:10.477Z,-0.10
2023-01-17T20:48:39.128Z,-0.10
2023-01-17T20:51:06.973Z,-0.10
2023-01-17T20:53:34.863Z,-0.10
2023-01-17T20:56:01.597Z,-0.10
2023-01-17T20:58:28.418Z,-0.10
2023-01-17T21:00:55.431Z,-0.10
2023-01-17T21:03:23.835Z,-0.20
2023-01-17T21:05:51.007Z,-0.20
2023-01-17T21:08:18.701Z,-0.30
2023-01-17T21:10:46.979Z,-0.30
2023-01-17T21:13:13.736Z,-0.40
2023-01-17T21:15:44.040Z,-0.40
2023-01-17T21:18:10.667Z,-0.50
2023-01-17T21:20:37.300Z,-0.50
2023-01-17T21:23:08.536Z,-0.50
2023-01-17T21:25:38.611Z,-0.60
2023-01-17T21:28:05.833Z,-0.60
2023-01-17T21:30:33.068Z,-0.70
2023-01-17T21:32:59.729Z,-0.70
2023-01-17T21:35:30.331Z,-0.80
2023-01-17T21:37:57.355Z,-0.80
2023-01-17T21:40:24.215Z,-0.90
2023-01-17T21:42:51.923Z,-0.90
2023-01-17T21:45:18.763Z,-0.90
2023-01-17T21:47:47.994Z,-1.00
2023-01-17T21:50:28.443Z,-1.00
2023-01-17T21:52:59.264Z,-1.00
2023-01-17T21:55:44.903Z,-1.00
2023-01-17T21:58:31.179Z,-1.00
2023-01-17T22:01:07.780Z,-1.00
2023-01-17T22:03:35.695Z,-1.00
2023-01-17T22:06:04.270Z,-1.00
2023-01-17T22:08:31.863Z,-1.00
2023-01-17T22:11:02.100Z,-1.00
2023-01-17T22:13:30.596Z,-1.00
2023-01-17T22:15:58.573Z,-1.00
2023-01-17T22:18:25.477Z,-1.00
2023-01-17T22:20:52.164Z,-0.90
2023-01-17T22:23:19.140Z,-0.90
2023-01-17T22:25:45.852Z,-0.80
2023-01-17T22:28:12.483Z,-0.80
2023-01-17T22:30:39.355Z,-0.70
2023-01-17T22:33:06.262Z,-0.70
2023-01-17T22:35:32.947Z,-0.70
2023-01-17T22:38:00.209Z,-0.60
2023-01-17T22:40:27.788Z,-0.60
2023-01-17T22:42:54.987Z,-0.60
2023-01-17T22:45:22.042Z,-0.60
2023-01-17T22:47:48.747Z,-0.50
2023-01-17T22:50:15.571Z,-0.50
2023-01-17T22:52:42.293Z,-0.40
2023-01-17T22:55:09.008Z,-0.40
2023-01-17T22:57:35.708Z,-0.30
2023-01-17T23:00:02.459Z,-0.30
2023-01-17T23:02:29.206Z,-0.30
2023-01-17T23:04:55.893Z,-0.30
2023-01-17T23:07:26.641Z,-0.30
2023-01-17T23:09:53.556Z,-0.30
2023-01-17T23:12:20.378Z,-0.30
2023-01-17T23:15:05.791Z,-0.30
2023-01-17T23:17:51.264Z,-0.30
2023-01-17T23:20:17.980Z,-0.20
2023-01-17T23:22:45.008Z,-0.20
2023-01-17T23:25:12.937Z,-0.20
2023-01-17T23:28:02.420Z,-0.20
2023-01-17T23:30:34.525Z,-0.20
2023-01-17T23:33:08.642Z,-0.10
2023-01-17T23:35:41.277Z,-0.10
2023-01-17T23:38:31.293Z,-0.10
2023-01-17T23:41:20.604Z,-0.10
2023-01-17T23:43:54.634Z,-0.10
2023-01-17T23:46:21.875Z,-0.20
2023-01-17T23:48:48.867Z,-0.20
2023-01-17T23:51:15.803Z,-0.20
2023-01-17T23:53:42.523Z,-0.20
2023-01-17T23:56:26.605Z,-0.20
2023-01-17T23:58:53.284Z,-0.20
